sensor_id;sensor_type;location;lat;lon;timestamp;P1;durP1;ratioP1;P2;durP2;ratioP2
44832;SDS011;30569;51.252;9.830;2023-03-17T00:01:14;6.90;;;4.07;;
44832;SDS011;30569;51.252;9.830;2023-03-17T00:03:42;7.23;;;4.00;;
44832;SDS011;30569;51.252;9.830;2023-03-17T00:06:13;8.57;;;3.93;;
44832;SDS011;30569;51.252;9.830;2023-03-17T00:08:41;8.07;;;3.90;;
44832;SDS011;30569;51.252;9.830;2023-03-17T00:11:11;7.10;;;3.67;;
44832;SDS011;30569;51.252;9.830;2023-03-17T00:13:39;10.27;;;4.23;;
44832;SDS011;30569;51.252;9.830;2023-03-17T00:16:05;7.47;;;4.00;;
44832;SDS011;30569;51.252;9.830;2023-03-17T00:18:39;8.50;;;4.20;;
44832;SDS011;30569;51.252;9.830;2023-03-17T00:21:05;8.40;;;4.10;;
44832;SDS011;30569;51.252;9.830;2023-03-17T00:23:36;7.37;;;4.00;;
44832;SDS011;30569;51.252;9.830;2023-03-17T00:26:02;8.70;;;4.20;;
44832;SDS011;30569;51.252;9.830;2023-03-17T00:28:28;7.80;;;4.07;;
44832;SDS011;30569;51.252;9.830;2023-03-17T00:30:55;7.07;;;4.23;;
44832;SDS011;30569;51.252;9.830;2023-03-17T00:33:26;8.10;;;3.90;;
44832;SDS011;30569;51.252;9.830;2023-03-17T00:35:54;9.20;;;4.13;;
44832;SDS011;30569;51.252;9.830;2023-03-17T00:38:21;7.00;;;3.60;;
44832;SDS011;30569;51.252;9.830;2023-03-17T00:40:48;8.93;;;4.27;;
44832;SDS011;30569;51.252;9.830;2023-03-17T00:43:15;8.00;;;4.57;;
44832;SDS011;30569;51.252;9.830;2023-03-17T00:45:41;7.53;;;3.93;;
44832;SDS011;30569;51.252;9.830;2023-03-17T00:48:14;6.20;;;3.87;;
44832;SDS011;30569;51.252;9.830;2023-03-17T00:50:42;7.43;;;3.63;;
44832;SDS011;30569;51.252;9.830;2023-03-17T00:53:09;8.40;;;4.03;;
44832;SDS011;30569;51.252;9.830;2023-03-17T00:55:37;6.97;;;4.03;;
44832;SDS011;30569;51.252;9.830;2023-03-17T00:58:22;7.13;;;4.00;;
44832;SDS011;30569;51.252;9.830;2023-03-17T01:00:52;8.70;;;4.27;;
44832;SDS011;30569;51.252;9.830;2023-03-17T01:03:19;8.23;;;3.80;;
44832;SDS011;30569;51.252;9.830;2023-03-17T01:05:45;8.17;;;4.07;;
44832;SDS011;30569;51.252;9.830;2023-03-17T01:08:12;8.47;;;4.23;;
44832;SDS011;30569;51.252;9.830;2023-03-17T01:10:37;8.20;;;4.37;;
44832;SDS011;30569;51.252;9.830;2023-03-17T01:13:04;8.27;;;4.13;;
44832;SDS011;30569;51.252;9.830;2023-03-17T01:15:31;9.37;;;4.37;;
44832;SDS011;30569;51.252;9.830;2023-03-17T01:17:58;9.00;;;4.33;;
44832;SDS011;30569;51.252;9.830;2023-03-17T01:20:34;9.93;;;4.40;;
44832;SDS011;30569;51.252;9.830;2023-03-17T01:23:00;9.70;;;4.33;;
44832;SDS011;30569;51.252;9.830;2023-03-17T01:25:26;7.93;;;4.20;;
44832;SDS011;30569;51.252;9.830;2023-03-17T01:27:53;7.83;;;4.23;;
44832;SDS011;30569;51.252;9.830;2023-03-17T01:30:28;8.87;;;4.50;;
44832;SDS011;30569;51.252;9.830;2023-03-17T01:32:56;8.97;;;4.50;;
44832;SDS011;30569;51.252;9.830;2023-03-17T01:35:23;8.87;;;4.30;;
44832;SDS011;30569;51.252;9.830;2023-03-17T01:37:49;7.43;;;3.63;;
44832;SDS011;30569;51.252;9.830;2023-03-17T01:40:20;8.57;;;4.40;;
44832;SDS011;30569;51.252;9.830;2023-03-17T01:42:52;7.43;;;3.80;;
44832;SDS011;30569;51.252;9.830;2023-03-17T01:48:23;8.30;;;4.78;;
44832;SDS011;30569;51.252;9.830;2023-03-17T01:50:51;7.97;;;4.47;;
44832;SDS011;30569;51.252;9.830;2023-03-17T01:53:17;7.60;;;4.50;;
44832;SDS011;30569;51.252;9.830;2023-03-17T01:55:45;7.83;;;4.07;;
44832;SDS011;30569;51.252;9.830;2023-03-17T01:58:11;6.60;;;3.83;;
44832;SDS011;30569;51.252;9.830;2023-03-17T02:00:40;7.00;;;4.20;;
44832;SDS011;30569;51.252;9.830;2023-03-17T02:03:05;6.13;;;3.67;;
44832;SDS011;30569;51.252;9.830;2023-03-17T02:05:31;7.47;;;3.90;;
44832;SDS011;30569;51.252;9.830;2023-03-17T02:07:57;7.90;;;4.40;;
44832;SDS011;30569;51.252;9.830;2023-03-17T02:10:23;7.87;;;4.37;;
44832;SDS011;30569;51.252;9.830;2023-03-17T02:12:52;8.20;;;4.23;;
44832;SDS011;30569;51.252;9.830;2023-03-17T02:15:21;8.00;;;4.23;;
44832;SDS011;30569;51.252;9.830;2023-03-17T02:17:46;8.23;;;4.40;;
44832;SDS011;30569;51.252;9.830;2023-03-17T02:22:42;6.67;;;3.67;;
44832;SDS011;30569;51.252;9.830;2023-03-17T02:25:10;8.47;;;4.23;;
44832;SDS011;30569;51.252;9.830;2023-03-17T02:27:39;6.43;;;3.50;;
44832;SDS011;30569;51.252;9.830;2023-03-17T02:30:09;9.63;;;3.80;;
44832;SDS011;30569;51.252;9.830;2023-03-17T02:32:39;8.63;;;3.77;;
44832;SDS011;30569;51.252;9.830;2023-03-17T02:35:05;6.47;;;3.60;;
44832;SDS011;30569;51.252;9.830;2023-03-17T02:37:31;7.20;;;3.67;;
44832;SDS011;30569;51.252;9.830;2023-03-17T02:39:57;7.63;;;4.00;;
44832;SDS011;30569;51.252;9.830;2023-03-17T02:42:25;7.23;;;3.90;;
44832;SDS011;30569;51.252;9.830;2023-03-17T02:44:51;8.77;;;3.90;;
44832;SDS011;30569;51.252;9.830;2023-03-17T02:47:16;7.30;;;4.20;;
44832;SDS011;30569;51.252;9.830;2023-03-17T02:49:42;8.70;;;4.40;;
44832;SDS011;30569;51.252;9.830;2023-03-17T02:52:09;9.07;;;4.20;;
44832;SDS011;30569;51.252;9.830;2023-03-17T02:54:36;7.80;;;4.43;;
44832;SDS011;30569;51.252;9.830;2023-03-17T02:57:01;10.57;;;3.87;;
44832;SDS011;30569;51.252;9.830;2023-03-17T02:59:27;7.80;;;3.97;;
44832;SDS011;30569;51.252;9.830;2023-03-17T03:01:52;7.33;;;3.73;;
44832;SDS011;30569;51.252;9.830;2023-03-17T03:04:20;7.53;;;4.07;;
44832;SDS011;30569;51.252;9.830;2023-03-17T03:06:46;8.27;;;3.73;;
44832;SDS011;30569;51.252;9.830;2023-03-17T03:09:12;8.80;;;4.60;;
44832;SDS011;30569;51.252;9.830;2023-03-17T03:11:38;6.77;;;3.90;;
44832;SDS011;30569;51.252;9.830;2023-03-17T03:14:04;11.03;;;4.47;;
44832;SDS011;30569;51.252;9.830;2023-03-17T03:16:30;7.83;;;3.80;;
44832;SDS011;30569;51.252;9.830;2023-03-17T03:18:56;9.57;;;3.57;;
44832;SDS011;30569;51.252;9.830;2023-03-17T03:21:22;8.93;;;4.17;;
44832;SDS011;30569;51.252;9.830;2023-03-17T03:23:48;9.27;;;4.27;;
44832;SDS011;30569;51.252;9.830;2023-03-17T03:26:14;6.90;;;3.87;;
44832;SDS011;30569;51.252;9.830;2023-03-17T03:28:40;7.27;;;4.47;;
44832;SDS011;30569;51.252;9.830;2023-03-17T03:31:06;7.70;;;4.27;;
44832;SDS011;30569;51.252;9.830;2023-03-17T03:33:31;9.43;;;4.50;;
44832;SDS011;30569;51.252;9.830;2023-03-17T03:35:57;11.80;;;6.27;;
44832;SDS011;30569;51.252;9.830;2023-03-17T03:38:24;12.67;;;6.90;;
44832;SDS011;30569;51.252;9.830;2023-03-17T03:40:50;7.13;;;3.80;;
44832;SDS011;30569;51.252;9.830;2023-03-17T03:43:16;21.77;;;10.13;;
44832;SDS011;30569;51.252;9.830;2023-03-17T03:45:42;9.07;;;4.93;;
44832;SDS011;30569;51.252;9.830;2023-03-17T03:48:08;12.50;;;6.30;;
44832;SDS011;30569;51.252;9.830;2023-03-17T03:50:34;16.00;;;6.90;;
44832;SDS011;30569;51.252;9.830;2023-03-17T03:53:00;9.70;;;4.70;;
44832;SDS011;30569;51.252;9.830;2023-03-17T03:55:27;7.83;;;3.93;;
44832;SDS011;30569;51.252;9.830;2023-03-17T03:57:52;6.63;;;4.00;;
44832;SDS011;30569;51.252;9.830;2023-03-17T04:00:18;7.20;;;3.87;;
44832;SDS011;30569;51.252;9.830;2023-03-17T04:02:44;7.37;;;3.70;;
44832;SDS011;30569;51.252;9.830;2023-03-17T04:05:11;8.40;;;4.30;;
44832;SDS011;30569;51.252;9.830;2023-03-17T04:07:37;8.10;;;3.93;;
44832;SDS011;30569;51.252;9.830;2023-03-17T04:10:04;9.10;;;4.87;;
44832;SDS011;30569;51.252;9.830;2023-03-17T04:12:29;6.90;;;3.50;;
44832;SDS011;30569;51.252;9.830;2023-03-17T04:14:55;7.70;;;4.13;;
44832;SDS011;30569;51.252;9.830;2023-03-17T04:17:21;6.67;;;3.77;;
44832;SDS011;30569;51.252;9.830;2023-03-17T04:19:46;7.97;;;3.93;;
44832;SDS011;30569;51.252;9.830;2023-03-17T04:22:13;8.23;;;4.43;;
44832;SDS011;30569;51.252;9.830;2023-03-17T04:24:38;9.20;;;4.60;;
44832;SDS011;30569;51.252;9.830;2023-03-17T04:27:04;10.30;;;5.67;;
44832;SDS011;30569;51.252;9.830;2023-03-17T04:29:31;7.17;;;4.03;;
44832;SDS011;30569;51.252;9.830;2023-03-17T04:31:57;6.33;;;3.90;;
44832;SDS011;30569;51.252;9.830;2023-03-17T04:34:23;7.27;;;3.50;;
44832;SDS011;30569;51.252;9.830;2023-03-17T04:36:49;7.63;;;4.00;;
44832;SDS011;30569;51.252;9.830;2023-03-17T04:39:15;6.97;;;4.17;;
44832;SDS011;30569;51.252;9.830;2023-03-17T04:41:41;8.40;;;3.73;;
44832;SDS011;30569;51.252;9.830;2023-03-17T04:44:07;10.87;;;3.73;;
44832;SDS011;30569;51.252;9.830;2023-03-17T04:46:32;7.07;;;4.20;;
44832;SDS011;30569;51.252;9.830;2023-03-17T04:48:58;10.03;;;5.33;;
44832;SDS011;30569;51.252;9.830;2023-03-17T04:51:24;8.73;;;4.60;;
44832;SDS011;30569;51.252;9.830;2023-03-17T04:53:50;6.30;;;3.90;;
44832;SDS011;30569;51.252;9.830;2023-03-17T04:56:16;8.73;;;4.00;;
44832;SDS011;30569;51.252;9.830;2023-03-17T04:58:42;10.07;;;4.23;;
44832;SDS011;30569;51.252;9.830;2023-03-17T05:01:08;8.00;;;3.67;;
44832;SDS011;30569;51.252;9.830;2023-03-17T05:03:34;7.47;;;4.20;;
44832;SDS011;30569;51.252;9.830;2023-03-17T05:06:00;6.33;;;3.67;;
44832;SDS011;30569;51.252;9.830;2023-03-17T05:08:26;12.10;;;5.10;;
44832;SDS011;30569;51.252;9.830;2023-03-17T05:10:53;8.53;;;4.67;;
44832;SDS011;30569;51.252;9.830;2023-03-17T05:13:19;15.07;;;8.50;;
44832;SDS011;30569;51.252;9.830;2023-03-17T05:15:46;11.60;;;5.10;;
44832;SDS011;30569;51.252;9.830;2023-03-17T05:18:12;6.83;;;3.30;;
44832;SDS011;30569;51.252;9.830;2023-03-17T05:20:38;7.57;;;3.37;;
44832;SDS011;30569;51.252;9.830;2023-03-17T05:23:04;6.10;;;3.13;;
44832;SDS011;30569;51.252;9.830;2023-03-17T05:25:29;5.57;;;3.23;;
44832;SDS011;30569;51.252;9.830;2023-03-17T05:27:55;6.73;;;3.30;;
44832;SDS011;30569;51.252;9.830;2023-03-17T05:30:20;8.10;;;4.93;;
44832;SDS011;30569;51.252;9.830;2023-03-17T05:32:46;5.60;;;3.37;;
44832;SDS011;30569;51.252;9.830;2023-03-17T05:35:12;7.87;;;3.93;;
44832;SDS011;30569;51.252;9.830;2023-03-17T05:37:37;6.80;;;4.00;;
44832;SDS011;30569;51.252;9.830;2023-03-17T05:40:03;6.07;;;3.60;;
44832;SDS011;30569;51.252;9.830;2023-03-17T05:42:29;7.13;;;3.63;;
44832;SDS011;30569;51.252;9.830;2023-03-17T05:44:55;6.77;;;3.60;;
44832;SDS011;30569;51.252;9.830;2023-03-17T05:47:20;6.27;;;3.43;;
44832;SDS011;30569;51.252;9.830;2023-03-17T05:49:47;5.53;;;3.30;;
44832;SDS011;30569;51.252;9.830;2023-03-17T05:52:12;6.47;;;3.90;;
44832;SDS011;30569;51.252;9.830;2023-03-17T05:54:38;8.10;;;4.53;;
44832;SDS011;30569;51.252;9.830;2023-03-17T05:57:04;8.57;;;4.10;;
44832;SDS011;30569;51.252;9.830;2023-03-17T05:59:31;7.17;;;4.50;;
44832;SDS011;30569;51.252;9.830;2023-03-17T06:01:57;5.77;;;3.77;;
44832;SDS011;30569;51.252;9.830;2023-03-17T06:04:23;6.60;;;3.43;;
44832;SDS011;30569;51.252;9.830;2023-03-17T06:06:50;6.60;;;3.30;;
44832;SDS011;30569;51.252;9.830;2023-03-17T06:09:15;6.23;;;3.37;;
44832;SDS011;30569;51.252;9.830;2023-03-17T06:11:42;6.77;;;3.27;;
44832;SDS011;30569;51.252;9.830;2023-03-17T06:14:08;6.13;;;3.30;;
44832;SDS011;30569;51.252;9.830;2023-03-17T06:16:33;12.17;;;6.17;;
44832;SDS011;30569;51.252;9.830;2023-03-17T06:18:59;12.67;;;6.53;;
44832;SDS011;30569;51.252;9.830;2023-03-17T06:21:26;17.10;;;8.67;;
44832;SDS011;30569;51.252;9.830;2023-03-17T06:23:51;12.27;;;6.13;;
44832;SDS011;30569;51.252;9.830;2023-03-17T06:26:18;10.27;;;6.00;;
44832;SDS011;30569;51.252;9.830;2023-03-17T06:28:44;10.93;;;6.50;;
44832;SDS011;30569;51.252;9.830;2023-03-17T06:31:10;8.03;;;4.47;;
44832;SDS011;30569;51.252;9.830;2023-03-17T06:33:36;13.23;;;6.77;;
44832;SDS011;30569;51.252;9.830;2023-03-17T06:36:01;7.90;;;4.90;;
44832;SDS011;30569;51.252;9.830;2023-03-17T06:38:28;7.53;;;4.30;;
44832;SDS011;30569;51.252;9.830;2023-03-17T06:40:53;7.17;;;4.10;;
44832;SDS011;30569;51.252;9.830;2023-03-17T06:43:19;7.47;;;4.00;;
44832;SDS011;30569;51.252;9.830;2023-03-17T06:45:46;6.00;;;3.60;;
44832;SDS011;30569;51.252;9.830;2023-03-17T06:48:12;9.40;;;3.23;;
44832;SDS011;30569;51.252;9.830;2023-03-17T06:50:37;6.00;;;3.30;;
44832;SDS011;30569;51.252;9.830;2023-03-17T06:53:03;5.90;;;3.03;;
44832;SDS011;30569;51.252;9.830;2023-03-17T06:55:29;4.97;;;2.90;;
44832;SDS011;30569;51.252;9.830;2023-03-17T06:57:55;5.20;;;3.00;;
44832;SDS011;30569;51.252;9.830;2023-03-17T07:00:22;6.73;;;2.80;;
44832;SDS011;30569;51.252;9.830;2023-03-17T07:02:48;6.77;;;3.47;;
44832;SDS011;30569;51.252;9.830;2023-03-17T07:05:14;6.00;;;3.17;;
44832;SDS011;30569;51.252;9.830;2023-03-17T07:07:40;5.20;;;2.60;;
44832;SDS011;30569;51.252;9.830;2023-03-17T07:10:06;6.33;;;2.70;;
44832;SDS011;30569;51.252;9.830;2023-03-17T07:12:34;6.03;;;2.80;;
44832;SDS011;30569;51.252;9.830;2023-03-17T07:15:00;5.70;;;2.83;;
44832;SDS011;30569;51.252;9.830;2023-03-17T07:17:27;4.77;;;2.50;;
44832;SDS011;30569;51.252;9.830;2023-03-17T07:19:54;5.57;;;2.70;;
44832;SDS011;30569;51.252;9.830;2023-03-17T07:22:20;4.97;;;2.40;;
44832;SDS011;30569;51.252;9.830;2023-03-17T07:24:46;6.20;;;2.70;;
44832;SDS011;30569;51.252;9.830;2023-03-17T07:27:13;5.70;;;2.90;;
44832;SDS011;30569;51.252;9.830;2023-03-17T07:29:39;9.40;;;3.90;;
44832;SDS011;30569;51.252;9.830;2023-03-17T07:32:05;5.40;;;3.17;;
44832;SDS011;30569;51.252;9.830;2023-03-17T07:34:33;6.70;;;3.70;;
44832;SDS011;30569;51.252;9.830;2023-03-17T07:36:59;5.27;;;3.30;;
44832;SDS011;30569;51.252;9.830;2023-03-17T07:39:25;5.87;;;2.87;;
44832;SDS011;30569;51.252;9.830;2023-03-17T07:41:51;5.80;;;3.27;;
44832;SDS011;30569;51.252;9.830;2023-03-17T07:44:19;8.30;;;3.43;;
44832;SDS011;30569;51.252;9.830;2023-03-17T07:46:46;8.00;;;3.33;;
44832;SDS011;30569;51.252;9.830;2023-03-17T07:49:12;9.95;;;3.67;;
44832;SDS011;30569;51.252;9.830;2023-03-17T07:51:38;7.90;;;3.95;;
44832;SDS011;30569;51.252;9.830;2023-03-17T07:54:07;10.03;;;5.57;;
44832;SDS011;30569;51.252;9.830;2023-03-17T07:56:36;10.30;;;6.70;;
44832;SDS011;30569;51.252;9.830;2023-03-17T07:59:02;7.43;;;4.57;;
44832;SDS011;30569;51.252;9.830;2023-03-17T08:01:28;6.37;;;3.33;;
44832;SDS011;30569;51.252;9.830;2023-03-17T08:03:54;8.05;;;3.22;;
44832;SDS011;30569;51.252;9.830;2023-03-17T08:06:20;6.30;;;3.07;;
44832;SDS011;30569;51.252;9.830;2023-03-17T08:08:49;7.47;;;3.67;;
44832;SDS011;30569;51.252;9.830;2023-03-17T08:11:15;6.27;;;2.57;;
44832;SDS011;30569;51.252;9.830;2023-03-17T08:13:41;4.25;;;2.50;;
44832;SDS011;30569;51.252;9.830;2023-03-17T08:16:07;6.10;;;2.40;;
44832;SDS011;30569;51.252;9.830;2023-03-17T08:18:33;5.03;;;2.70;;
44832;SDS011;30569;51.252;9.830;2023-03-17T08:20:59;5.25;;;2.88;;
44832;SDS011;30569;51.252;9.830;2023-03-17T08:23:24;5.13;;;2.70;;
44832;SDS011;30569;51.252;9.830;2023-03-17T08:25:55;7.47;;;2.95;;
44832;SDS011;30569;51.252;9.830;2023-03-17T08:28:24;5.13;;;2.50;;
44832;SDS011;30569;51.252;9.830;2023-03-17T08:30:51;8.25;;;3.22;;
44832;SDS011;30569;51.252;9.830;2023-03-17T08:33:17;8.30;;;3.30;;
44832;SDS011;30569;51.252;9.830;2023-03-17T08:35:43;5.72;;;2.85;;
44832;SDS011;30569;51.252;9.830;2023-03-17T08:38:08;5.07;;;2.40;;
44832;SDS011;30569;51.252;9.830;2023-03-17T08:40:35;6.18;;;2.72;;
44832;SDS011;30569;51.252;9.830;2023-03-17T08:43:01;5.95;;;3.22;;
44832;SDS011;30569;51.252;9.830;2023-03-17T08:45:27;8.55;;;5.28;;
44832;SDS011;30569;51.252;9.830;2023-03-17T08:47:52;7.20;;;3.92;;
44832;SDS011;30569;51.252;9.830;2023-03-17T08:50:20;6.28;;;2.70;;
44832;SDS011;30569;51.252;9.830;2023-03-17T08:52:47;6.22;;;2.88;;
44832;SDS011;30569;51.252;9.830;2023-03-17T08:55:13;8.43;;;2.80;;
44832;SDS011;30569;51.252;9.830;2023-03-17T08:57:40;6.32;;;2.80;;
44832;SDS011;30569;51.252;9.830;2023-03-17T09:00:09;5.28;;;2.78;;
44832;SDS011;30569;51.252;9.830;2023-03-17T09:02:40;5.45;;;2.58;;
44832;SDS011;30569;51.252;9.830;2023-03-17T09:05:08;6.65;;;2.80;;
44832;SDS011;30569;51.252;9.830;2023-03-17T09:07:35;6.72;;;2.60;;
44832;SDS011;30569;51.252;9.830;2023-03-17T09:10:02;7.15;;;2.88;;
44832;SDS011;30569;51.252;9.830;2023-03-17T09:12:28;6.72;;;3.10;;
44832;SDS011;30569;51.252;9.830;2023-03-17T09:14:54;5.75;;;2.30;;
44832;SDS011;30569;51.252;9.830;2023-03-17T09:17:21;8.38;;;2.45;;
44832;SDS011;30569;51.252;9.830;2023-03-17T09:19:47;5.70;;;2.50;;
44832;SDS011;30569;51.252;9.830;2023-03-17T09:22:13;6.03;;;2.58;;
44832;SDS011;30569;51.252;9.830;2023-03-17T09:24:41;5.38;;;2.50;;
44832;SDS011;30569;51.252;9.830;2023-03-17T09:27:07;5.45;;;2.15;;
44832;SDS011;30569;51.252;9.830;2023-03-17T09:29:32;6.03;;;2.70;;
44832;SDS011;30569;51.252;9.830;2023-03-17T09:31:59;6.38;;;2.92;;
44832;SDS011;30569;51.252;9.830;2023-03-17T09:34:25;6.50;;;2.50;;
44832;SDS011;30569;51.252;9.830;2023-03-17T09:36:54;6.18;;;2.38;;
44832;SDS011;30569;51.252;9.830;2023-03-17T09:39:20;4.93;;;2.20;;
44832;SDS011;30569;51.252;9.830;2023-03-17T09:50:36;5.32;;;2.05;;
44832;SDS011;30569;51.252;9.830;2023-03-17T09:53:19;4.57;;;2.17;;
44832;SDS011;30569;51.252;9.830;2023-03-17T09:55:58;4.55;;;2.00;;
44832;SDS011;30569;51.252;9.830;2023-03-17T09:58:31;8.27;;;3.55;;
44832;SDS011;30569;51.252;9.830;2023-03-17T10:00:59;5.20;;;2.30;;
44832;SDS011;30569;51.252;9.830;2023-03-17T10:03:27;5.10;;;2.20;;
44832;SDS011;30569;51.252;9.830;2023-03-17T10:05:55;4.60;;;2.55;;
44832;SDS011;30569;51.252;9.830;2023-03-17T10:08:40;4.35;;;2.00;;
44832;SDS011;30569;51.252;9.830;2023-03-17T10:21:37;4.40;;;2.20;;
44832;SDS011;30569;51.252;9.830;2023-03-17T10:24:12;3.90;;;1.98;;
44832;SDS011;30569;51.252;9.830;2023-03-17T10:26:51;6.85;;;2.70;;
44832;SDS011;30569;51.252;9.830;2023-03-17T10:31:48;5.18;;;2.42;;
44832;SDS011;30569;51.252;9.830;2023-03-17T10:34:20;6.38;;;2.30;;
44832;SDS011;30569;51.252;9.830;2023-03-17T10:36:52;5.97;;;2.33;;
44832;SDS011;30569;51.252;9.830;2023-03-17T10:39:21;6.45;;;2.30;;
44832;SDS011;30569;51.252;9.830;2023-03-17T10:41:58;8.18;;;2.30;;
44832;SDS011;30569;51.252;9.830;2023-03-17T10:44:45;6.38;;;2.35;;
44832;SDS011;30569;51.252;9.830;2023-03-17T10:49:58;4.63;;;2.00;;
44832;SDS011;30569;51.252;9.830;2023-03-17T10:52:39;5.20;;;2.08;;
44832;SDS011;30569;51.252;9.830;2023-03-17T10:55:06;8.38;;;2.25;;
44832;SDS011;30569;51.252;9.830;2023-03-17T10:57:37;3.90;;;1.80;;
44832;SDS011;30569;51.252;9.830;2023-03-17T11:00:11;6.70;;;1.77;;
44832;SDS011;30569;51.252;9.830;2023-03-17T11:02:45;6.03;;;2.58;;
44832;SDS011;30569;51.252;9.830;2023-03-17T11:05:27;6.18;;;2.30;;
44832;SDS011;30569;51.252;9.830;2023-03-17T11:08:04;6.10;;;2.17;;
44832;SDS011;30569;51.252;9.830;2023-03-17T11:10:41;4.55;;;2.20;;
44832;SDS011;30569;51.252;9.830;2023-03-17T11:13:08;4.45;;;1.63;;
44832;SDS011;30569;51.252;9.830;2023-03-17T11:15:36;5.13;;;2.13;;
44832;SDS011;30569;51.252;9.830;2023-03-17T11:18:12;5.75;;;2.10;;
44832;SDS011;30569;51.252;9.830;2023-03-17T11:20:57;4.47;;;1.88;;
44832;SDS011;30569;51.252;9.830;2023-03-17T11:37:09;6.70;;;2.42;;
44832;SDS011;30569;51.252;9.830;2023-03-17T11:40:06;4.57;;;1.77;;
44832;SDS011;30569;51.252;9.830;2023-03-17T11:42:38;5.50;;;2.28;;
44832;SDS011;30569;51.252;9.830;2023-03-17T11:50:48;7.65;;;2.10;;
44832;SDS011;30569;51.252;9.830;2023-03-17T11:53:25;6.07;;;2.20;;
44832;SDS011;30569;51.252;9.830;2023-03-17T11:56:07;6.40;;;2.33;;
44832;SDS011;30569;51.252;9.830;2023-03-17T11:58:40;5.15;;;2.20;;
44832;SDS011;30569;51.252;9.830;2023-03-17T12:01:10;6.45;;;2.10;;
44832;SDS011;30569;51.252;9.830;2023-03-17T12:04:06;5.13;;;2.00;;
44832;SDS011;30569;51.252;9.830;2023-03-17T12:06:48;6.13;;;2.20;;
44832;SDS011;30569;51.252;9.830;2023-03-17T12:09:25;5.28;;;2.08;;
44832;SDS011;30569;51.252;9.830;2023-03-17T12:12:03;4.38;;;1.80;;
44832;SDS011;30569;51.252;9.830;2023-03-17T12:17:03;5.30;;;2.00;;
44832;SDS011;30569;51.252;9.830;2023-03-17T12:25:14;5.90;;;2.00;;
44832;SDS011;30569;51.252;9.830;2023-03-17T12:27:55;5.47;;;3.08;;
44832;SDS011;30569;51.252;9.830;2023-03-17T12:35:36;10.82;;;2.28;;
44832;SDS011;30569;51.252;9.830;2023-03-17T12:38:12;8.20;;;3.30;;
44832;SDS011;30569;51.252;9.830;2023-03-17T12:54:34;4.60;;;2.00;;
44832;SDS011;30569;51.252;9.830;2023-03-17T12:57:02;4.88;;;1.60;;
44832;SDS011;30569;51.252;9.830;2023-03-17T12:59:40;4.00;;;1.70;;
44832;SDS011;30569;51.252;9.830;2023-03-17T13:04:45;6.90;;;1.67;;
44832;SDS011;30569;51.252;9.830;2023-03-17T13:07:22;4.88;;;1.83;;
44832;SDS011;30569;51.252;9.830;2023-03-17T13:15:19;5.82;;;1.85;;
44832;SDS011;30569;51.252;9.830;2023-03-17T13:20:50;5.28;;;1.90;;
44832;SDS011;30569;51.252;9.830;2023-03-17T13:23:19;4.03;;;1.60;;
44832;SDS011;30569;51.252;9.830;2023-03-17T13:25:56;5.28;;;1.90;;
44832;SDS011;30569;51.252;9.830;2023-03-17T13:28:26;6.60;;;1.67;;
44832;SDS011;30569;51.252;9.830;2023-03-17T13:33:50;3.15;;;1.48;;
44832;SDS011;30569;51.252;9.830;2023-03-17T13:41:35;4.25;;;1.90;;
44832;SDS011;30569;51.252;9.830;2023-03-17T13:44:57;5.28;;;1.80;;
44832;SDS011;30569;51.252;9.830;2023-03-17T13:50:20;4.10;;;1.63;;
44832;SDS011;30569;51.252;9.830;2023-03-17T13:52:55;4.18;;;1.67;;
44832;SDS011;30569;51.252;9.830;2023-03-17T13:57:54;3.10;;;1.60;;
44832;SDS011;30569;51.252;9.830;2023-03-17T14:00:32;4.65;;;1.70;;
44832;SDS011;30569;51.252;9.830;2023-03-17T14:03:05;15.00;;;7.05;;
44832;SDS011;30569;51.252;9.830;2023-03-17T14:05:39;7.88;;;2.30;;
44832;SDS011;30569;51.252;9.830;2023-03-17T14:08:10;3.72;;;1.50;;
44832;SDS011;30569;51.252;9.830;2023-03-17T14:10:42;5.90;;;1.75;;
44832;SDS011;30569;51.252;9.830;2023-03-17T14:15:45;6.82;;;1.77;;
44832;SDS011;30569;51.252;9.830;2023-03-17T14:18:17;5.30;;;1.70;;
44832;SDS011;30569;51.252;9.830;2023-03-17T14:20:55;3.83;;;1.50;;
44832;SDS011;30569;51.252;9.830;2023-03-17T14:23:23;4.28;;;1.88;;
44832;SDS011;30569;51.252;9.830;2023-03-17T14:25:49;3.50;;;1.50;;
44832;SDS011;30569;51.252;9.830;2023-03-17T14:28:16;3.15;;;1.38;;
44832;SDS011;30569;51.252;9.830;2023-03-17T14:30:51;4.70;;;1.40;;
44832;SDS011;30569;51.252;9.830;2023-03-17T14:33:39;3.17;;;1.30;;
44832;SDS011;30569;51.252;9.830;2023-03-17T14:36:06;7.00;;;1.60;;
44832;SDS011;30569;51.252;9.830;2023-03-17T14:38:35;5.28;;;1.85;;
44832;SDS011;30569;51.252;9.830;2023-03-17T14:43:39;4.30;;;2.10;;
44832;SDS011;30569;51.252;9.830;2023-03-17T14:46:11;5.32;;;1.50;;
44832;SDS011;30569;51.252;9.830;2023-03-17T14:48:43;6.55;;;1.80;;
44832;SDS011;30569;51.252;9.830;2023-03-17T14:54:02;7.75;;;1.73;;
44832;SDS011;30569;51.252;9.830;2023-03-17T14:56:38;5.03;;;1.73;;
44832;SDS011;30569;51.252;9.830;2023-03-17T14:59:07;3.85;;;1.60;;
44832;SDS011;30569;51.252;9.830;2023-03-17T15:01:41;6.25;;;1.55;;
44832;SDS011;30569;51.252;9.830;2023-03-17T15:04:14;3.85;;;1.55;;
44832;SDS011;30569;51.252;9.830;2023-03-17T15:06:47;4.47;;;1.60;;
44832;SDS011;30569;51.252;9.830;2023-03-17T15:09:18;8.07;;;1.85;;
44832;SDS011;30569;51.252;9.830;2023-03-17T15:14:41;6.30;;;2.92;;
44832;SDS011;30569;51.252;9.830;2023-03-17T15:17:16;8.27;;;4.40;;
44832;SDS011;30569;51.252;9.830;2023-03-17T15:19:53;4.38;;;2.05;;
44832;SDS011;30569;51.252;9.830;2023-03-17T15:27:26;7.33;;;2.10;;
44832;SDS011;30569;51.252;9.830;2023-03-17T15:29:52;7.70;;;2.95;;
44832;SDS011;30569;51.252;9.830;2023-03-17T15:32:19;7.00;;;1.70;;
44832;SDS011;30569;51.252;9.830;2023-03-17T15:34:48;4.47;;;2.10;;
44832;SDS011;30569;51.252;9.830;2023-03-17T15:37:17;6.45;;;3.47;;
44832;SDS011;30569;51.252;9.830;2023-03-17T15:39:44;4.22;;;1.98;;
44832;SDS011;30569;51.252;9.830;2023-03-17T15:42:10;4.18;;;1.50;;
44832;SDS011;30569;51.252;9.830;2023-03-17T15:44:36;5.10;;;2.45;;
44832;SDS011;30569;51.252;9.830;2023-03-17T15:47:01;5.35;;;2.30;;
44832;SDS011;30569;51.252;9.830;2023-03-17T15:49:28;4.95;;;2.40;;
44832;SDS011;30569;51.252;9.830;2023-03-17T15:51:54;6.47;;;2.60;;
44832;SDS011;30569;51.252;9.830;2023-03-17T15:54:20;5.13;;;2.00;;
44832;SDS011;30569;51.252;9.830;2023-03-17T15:56:45;4.20;;;1.65;;
44832;SDS011;30569;51.252;9.830;2023-03-17T15:59:11;6.55;;;2.03;;
44832;SDS011;30569;51.252;9.830;2023-03-17T16:01:36;9.63;;;2.05;;
44832;SDS011;30569;51.252;9.830;2023-03-17T16:04:03;6.93;;;1.90;;
44832;SDS011;30569;51.252;9.830;2023-03-17T16:06:30;4.18;;;1.73;;
44832;SDS011;30569;51.252;9.830;2023-03-17T16:08:56;6.43;;;2.03;;
44832;SDS011;30569;51.252;9.830;2023-03-17T16:11:22;4.47;;;1.63;;
44832;SDS011;30569;51.252;9.830;2023-03-17T16:13:55;3.85;;;1.80;;
44832;SDS011;30569;51.252;9.830;2023-03-17T16:16:45;5.75;;;1.73;;
44832;SDS011;30569;51.252;9.830;2023-03-17T16:19:16;8.57;;;2.70;;
44832;SDS011;30569;51.252;9.830;2023-03-17T16:21:44;4.95;;;2.55;;
44832;SDS011;30569;51.252;9.830;2023-03-17T16:24:23;6.10;;;3.38;;
44832;SDS011;30569;51.252;9.830;2023-03-17T16:26:50;6.97;;;2.50;;
44832;SDS011;30569;51.252;9.830;2023-03-17T16:29:16;5.53;;;2.80;;
44832;SDS011;30569;51.252;9.830;2023-03-17T16:31:43;6.47;;;2.28;;
44832;SDS011;30569;51.252;9.830;2023-03-17T16:34:16;8.15;;;4.10;;
44832;SDS011;30569;51.252;9.830;2023-03-17T16:36:44;7.13;;;4.40;;
44832;SDS011;30569;51.252;9.830;2023-03-17T16:39:14;5.57;;;3.42;;
44832;SDS011;30569;51.252;9.830;2023-03-17T16:41:48;7.25;;;4.05;;
44832;SDS011;30569;51.252;9.830;2023-03-17T16:44:14;9.00;;;2.88;;
44832;SDS011;30569;51.252;9.830;2023-03-17T16:46:42;7.63;;;2.80;;
44832;SDS011;30569;51.252;9.830;2023-03-17T16:49:18;5.95;;;2.67;;
44832;SDS011;30569;51.252;9.830;2023-03-17T16:51:44;7.68;;;2.58;;